Time;durP1;ratioP1;P1;durP2;ratioP2;P2;SDS_P1;SDS_P2;PMS_P1;PMS_P2;Temp;Humidity;BMP_temperature;BMP_pressure;BME280_temperature;BME280_humidity;BME280_pressure;Samples;Min_cycle;Max_cycle;Signal;HPM_P1;HPM_P2
2022/08/18 00:04:48;;;;;;;19.30;14.00;;;;;;;23.76;62.08;98654.91;237230;1196;140651;-58
2022/08/18 00:09:59;;;;;;;18.70;14.40;;;;;;;23.73;61.82;98659.95;237616;1195;139709;-59
2022/08/18 00:15:04;;;;;;;17.10;14.40;;;;;;;23.68;61.90;98670.54;237335;1195;140730;-59
2022/08/18 00:20:11;;;;;;;18.90;14.40;;;;;;;23.60;61.97;98669.28;237327;1195;140154;-57
2022/08/18 00:25:16;;;;;;;19.90;14.30;;;;;;;23.53;61.99;98671.14;236794;1196;139255;-57
2022/08/18 00:30:20;;;;;;;18.30;13.90;;;;;;;23.49;62.13;98664.64;237593;1195;140474;-57
2022/08/18 00:35:30;;;;;;;17.60;13.80;;;;;;;23.48;62.29;98665.75;236397;1195;141197;-56
2022/08/18 00:40:45;;;;;;;18.30;14.20;;;;;;;23.46;62.39;98662.04;237338;1196;139372;-58
2022/08/18 00:45:48;;;;;;;17.20;13.80;;;;;;;23.42;62.47;98664.83;237465;1196;139943;-58
2022/08/18 00:50:52;;;;;;;18.20;14.20;;;;;;;23.35;62.32;98674.10;237500;1195;139654;-58
2022/08/18 00:55:59;;;;;;;17.20;12.40;;;;;;;23.27;62.37;98676.56;237355;1195;140364;-59
2022/08/18 01:01:05;;;;;;;17.70;12.20;;;;;;;23.22;62.40;98671.05;237319;1196;140185;-57
2022/08/18 01:06:16;;;;;;;17.30;12.90;;;;;;;23.18;62.50;98661.01;237285;1195;140619;-58
2022/08/18 01:11:19;;;;;;;15.90;12.80;;;;;;;23.14;62.42;98653.05;236077;1195;139899;-58
2022/08/18 01:22:10;;;;;;;19.10;13.40;;;;;;;22.99;62.56;98647.25;237613;1196;139442;-59
2022/08/18 01:27:17;;;;;;;16.80;11.80;;;;;;;22.91;62.66;98653.58;237486;1195;139591;-58
2022/08/18 01:32:21;;;;;;;16.40;11.70;;;;;;;22.87;62.64;98647.52;236062;1196;140532;-58
2022/08/18 01:37:24;;;;;;;17.10;12.80;;;;;;;22.85;62.75;98638.35;237302;1196;140747;-57
2022/08/18 01:42:27;;;;;;;15.30;12.80;;;;;;;22.82;62.83;98641.95;237372;1196;139877;-56
2022/08/18 01:47:32;;;;;;;17.80;14.00;;;;;;;22.79;62.98;98636.38;237300;1195;140684;-57
2022/08/18 01:52:52;;;;;;;19.00;13.50;;;;;;;22.75;62.96;98630.00;237253;1196;139464;-59
2022/08/18 01:57:55;;;;;;;15.50;12.00;;;;;;;22.70;63.05;98633.51;237491;1195;139782;-58
2022/08/18 02:03:00;;;;;;;18.50;11.80;;;;;;;22.66;62.98;98632.66;237230;1196;140679;-58
2022/08/18 02:08:05;;;;;;;19.00;13.30;;;;;;;22.64;63.03;98628.20;237170;1196;140949;-58
2022/08/18 02:13:11;;;;;;;16.40;12.90;;;;;;;22.60;63.02;98637.17;236946;1196;140130;-57
2022/08/18 02:18:16;;;;;;;15.50;13.00;;;;;;;22.54;63.05;98638.61;237084;1196;140168;-58
2022/08/18 02:23:41;;;;;;;17.00;12.80;;;;;;;22.48;63.17;98640.09;237518;1195;139436;-58
2022/08/18 02:28:54;;;;;;;17.90;12.10;;;;;;;22.40;63.33;98634.69;237300;1195;139498;-58
2022/08/18 02:33:58;;;;;;;19.30;12.80;;;;;;;22.39;63.51;98625.63;237538;1195;140249;-59
2022/08/18 02:39:02;;;;;;;18.20;13.30;;;;;;;22.39;63.46;98626.77;237062;1196;139826;-58
2022/08/18 02:44:06;;;;;;;16.90;13.20;;;;;;;22.36;63.52;98632.97;237290;1195;140252;-57
2022/08/18 02:49:11;;;;;;;13.80;12.20;;;;;;;22.32;63.44;98632.88;237462;1195;140227;-58
2022/08/18 02:54:13;;;;;;;16.80;12.50;;;;;;;22.28;63.48;98622.52;237175;1196;139663;-59
2022/08/18 02:59:26;;;;;;;19.10;12.00;;;;;;;22.23;63.45;98620.98;237469;1195;139575;-58
2022/08/18 03:04:29;;;;;;;16.90;12.40;;;;;;;22.19;63.41;98623.04;237531;1195;140126;-58
2022/08/18 03:09:34;;;;;;;16.10;12.50;;;;;;;22.17;63.50;98623.48;237325;1196;141015;-58
2022/08/18 03:14:38;;;;;;;15.00;13.30;;;;;;;22.16;63.59;98622.81;237234;1196;141038;-59
2022/08/18 03:19:43;;;;;;;19.70;13.80;;;;;;;22.13;63.65;98630.22;237441;1195;139869;-60
2022/08/18 03:24:53;;;;;;;17.40;13.80;;;;;;;22.08;63.73;98630.86;237478;1195;139313;-62
2022/08/18 03:30:03;;;;;;;16.80;13.20;;;;;;;22.04;63.91;98635.97;237286;1195;140293;-62
2022/08/18 03:35:13;;;;;;;15.80;14.00;;;;;;;22.06;64.09;98647.64;236771;1195;140535;-62
2022/08/18 03:40:16;;;;;;;18.30;14.80;;;;;;;22.12;64.18;98651.40;237448;1195;140264;-58
2022/08/18 03:45:19;;;;;;;21.60;16.50;;;;;;;22.15;64.31;98657.41;237598;1195;139868;-61
2022/08/18 03:50:24;;;;;;;24.10;16.70;;;;;;;22.19;64.59;98663.83;237411;1196;140212;-62
2022/08/18 03:55:28;;;;;;;19.20;17.10;;;;;;;22.22;64.49;98664.48;237093;1196;139759;-62
2022/08/18 04:00:32;;;;;;;23.10;15.90;;;;;;;22.20;64.47;98675.89;237240;1196;139753;-62
2022/08/18 04:05:38;;;;;;;18.40;15.70;;;;;;;22.22;64.54;98686.57;237471;1195;140728;-62
2022/08/18 04:10:43;;;;;;;19.20;16.90;;;;;;;22.25;64.55;98689.18;237475;1195;139889;-58
2022/08/18 04:15:46;;;;;;;18.50;16.50;;;;;;;22.29;64.64;98692.38;237488;1196;139762;-58
2022/08/18 04:20:49;;;;;;;22.70;17.70;;;;;;;22.30;64.55;98697.70;237140;1196;139964;-59
2022/08/18 04:26:03;;;;;;;21.90;17.70;;;;;;;22.31;64.66;98700.12;237288;1196;140461;-59
2022/08/18 04:31:08;;;;;;;25.70;17.30;;;;;;;22.31;64.74;98697.17;237358;1196;139211;-61
2022/08/18 04:36:14;;;;;;;23.50;18.10;;;;;;;22.36;64.83;98697.61;236923;1196;141702;-61
2022/08/18 04:41:26;;;;;;;22.70;19.90;;;;;;;22.45;64.96;98700.10;237351;1196;140657;-61
2022/08/18 04:46:34;;;;;;;30.10;20.70;;;;;;;22.52;65.15;98709.01;237168;1196;140076;-58
2022/08/18 04:51:43;;;;;;;23.60;20.60;;;;;;;22.55;65.12;98715.56;237267;1195;139415;-59
2022/08/18 04:57:17;;;;;;;28.90;20.50;;;;;;;22.58;65.26;98715.01;236580;1195;139402;-59
2022/08/18 05:02:21;;;;;;;57.90;43.00;;;;;;;22.72;65.93;98719.66;237260;1195;142347;-58
2022/08/18 05:07:24;;;;;;;156.60;125.00;;;;;;;23.01;66.75;98720.95;237335;1196;140231;-61
2022/08/18 05:12:29;;;;;;;36.70;31.70;;;;;;;23.24;66.66;98720.08;236777;1195;140029;-61
2022/08/18 05:17:32;;;;;;;34.20;26.40;;;;;;;23.42;66.72;98712.50;237426;1195;139854;-59
2022/08/18 05:22:37;;;;;;;32.10;24.40;;;;;;;23.62;66.68;98709.34;237388;1195;139951;-59
2022/08/18 05:27:42;;;;;;;118.10;93.00;;;;;;;23.79;66.20;98708.15;237110;1195;140386;-58
2022/08/18 05:32:46;;;;;;;33.90;24.90;;;;;;;23.90;65.84;98709.39;237264;1195;140661;-59
2022/08/18 05:38:03;;;;;;;38.60;28.30;;;;;;;23.98;65.58;98707.69;237352;1195;139972;-58
2022/08/18 05:43:08;;;;;;;28.80;21.30;;;;;;;24.06;65.44;98710.60;237307;1195;140355;-59
2022/08/18 05:48:13;;;;;;;25.80;21.20;;;;;;;24.12;65.33;98716.95;237243;1195;139317;-58
2022/08/18 05:53:18;;;;;;;23.70;19.10;;;;;;;24.17;65.28;98720.52;237037;1195;141668;-59
2022/08/18 05:58:32;;;;;;;55.00;45.30;;;;;;;24.25;65.17;98723.64;237101;1195;140464;-59
2022/08/18 06:03:41;;;;;;;29.10;25.40;;;;;;;24.34;65.22;98723.87;237482;1195;139826;-61
2022/08/18 06:09:04;;;;;;;77.50;68.00;;;;;;;24.41;65.20;98726.20;237192;1195;140310;-58
2022/08/18 06:14:07;;;;;;;37.60;29.30;;;;;;;24.47;64.96;98720.62;237378;1194;140219;-59
2022/08/18 06:19:35;;;;;;;28.70;24.80;;;;;;;24.50;64.91;98715.66;237401;1195;139541;-59
2022/08/18 06:24:52;;;;;;;21.80;19.40;;;;;;;24.55;64.83;98716.87;236788;1195;139879;-59
2022/08/18 06:29:56;;;;;;;22.20;18.50;;;;;;;24.61;64.64;98718.81;237433;1195;139630;-59
2022/08/18 06:35:36;;;;;;;20.20;16.90;;;;;;;24.66;64.70;98728.75;237276;1195;139967;-58
2022/08/18 06:40:39;;;;;;;18.50;16.60;;;;;;;24.70;64.61;98724.39;237181;1196;139772;-61
2022/08/18 06:45:47;;;;;;;46.90;40.50;;;;;;;24.74;64.50;98728.23;237440;1195;141827;-57
2022/08/18 06:50:56;;;;;;;25.10;18.00;;;;;;;24.75;64.37;98727.17;237136;1195;140931;-56
2022/08/18 06:56:33;;;;;;;21.20;17.20;;;;;;;24.84;64.40;98735.58;237120;1196;140956;-57
2022/08/18 07:01:36;;;;;;;18.30;16.10;;;;;;;24.99;64.54;98734.77;237176;1196;140287;-57
2022/08/18 07:06:40;;;;;;;20.90;15.70;;;;;;;25.10;64.46;98740.11;237309;1195;140297;-56
2022/08/18 07:12:02;;;;;;;29.90;19.80;;;;;;;25.19;64.43;98743.61;237305;1195;139897;-57
2022/08/18 07:17:10;;;;;;;32.30;23.60;;;;;;;25.25;64.22;98735.19;237198;1196;139988;-56
2022/08/18 07:22:17;;;;;;;19.20;14.10;;;;;;;25.31;63.97;98741.08;237252;1195;139832;-57
2022/08/18 07:27:42;;;;;;;15.10;12.60;;;;;;;25.38;63.92;98738.24;237558;1195;140280;-57
2022/08/18 07:33:06;;;;;;;18.10;14.40;;;;;;;25.48;63.90;98740.82;237164;1196;141487;-57
2022/08/18 07:38:24;;;;;;;21.50;14.90;;;;;;;25.57;63.93;98735.65;237257;1195;139789;-57
2022/08/18 07:43:50;;;;;;;14.90;12.90;;;;;;;25.65;63.83;98739.23;237274;1195;139283;-57
2022/08/18 07:48:57;;;;;;;17.80;10.90;;;;;;;25.74;63.52;98740.38;237410;1195;140970;-57
2022/08/18 07:54:27;;;;;;;27.40;21.80;;;;;;;25.87;63.40;98739.35;237164;1195;139865;-58
2022/08/18 08:00:01;;;;;;;13.50;11.00;;;;;;;26.02;62.99;98731.46;237208;1195;139959;-58
2022/08/18 08:05:20;;;;;;;14.50;10.80;;;;;;;26.11;62.55;98723.30;237202;1195;139863;-56
2022/08/18 08:10:50;;;;;;;12.90;10.50;;;;;;;26.11;62.28;98721.90;237170;1195;142297;-57
2022/08/18 08:16:12;;;;;;;16.10;10.10;;;;;;;26.10;61.98;98718.09;236476;1195;139526;-58
2022/08/18 08:21:18;;;;;;;13.90;11.10;;;;;;;26.17;61.94;98717.81;237610;1195;140953;-57
2022/08/18 08:26:46;;;;;;;12.60;9.10;;;;;;;26.18;61.60;98715.06;237157;1195;139632;-56
2022/08/18 08:32:00;;;;;;;10.90;9.60;;;;;;;26.26;61.51;98716.51;237318;1195;139882;-57
2022/08/18 08:37:08;;;;;;;16.60;9.90;;;;;;;26.37;61.51;98716.05;236941;1195;141374;-58
2022/08/18 08:42:21;;;;;;;16.90;10.60;;;;;;;26.42;61.25;98710.02;236970;1196;141562;-55
2022/08/18 08:47:54;;;;;;;19.10;9.80;;;;;;;26.51;61.01;98714.56;237145;1196;141051;-56
2022/08/18 08:53:30;;;;;;;17.10;9.70;;;;;;;26.61;60.78;98713.64;236946;1195;139853;-58
2022/08/18 08:58:48;;;;;;;19.80;9.60;;;;;;;26.65;60.41;98721.12;236908;1196;139164;-57
2022/08/18 09:04:08;;;;;;;31.80;24.10;;;;;;;26.76;60.09;98718.20;237165;1195;140931;-58
2022/08/18 09:09:25;;;;;;;14.00;9.20;;;;;;;26.83;59.77;98723.85;236986;1195;140303;-58
2022/08/18 09:14:52;;;;;;;12.80;9.30;;;;;;;26.97;59.21;98729.08;236808;1195;139622;-59
2022/08/18 09:20:13;;;;;;;22.50;18.40;;;;;;;27.14;58.98;98734.08;237128;1196;139574;-57
2022/08/18 09:25:45;;;;;;;14.30;9.80;;;;;;;27.26;58.61;98739.34;237078;1195;141834;-57
2022/08/18 09:31:04;;;;;;;15.30;11.10;;;;;;;27.41;58.43;98731.73;236889;1196;139688;-57
2022/08/18 09:36:35;;;;;;;15.80;10.90;;;;;;;27.50;58.18;98727.73;236987;1196;140759;-57
2022/08/18 09:41:50;;;;;;;12.50;10.10;;;;;;;27.65;58.18;98732.92;236906;1196;139916;-57
2022/08/18 09:46:55;;;;;;;16.90;10.70;;;;;;;27.79;57.70;98733.73;236909;1196;140149;-57
2022/08/18 09:52:20;;;;;;;15.10;9.60;;;;;;;27.92;57.49;98732.15;237108;1196;139604;-57
2022/08/18 09:57:31;;;;;;;15.70;10.20;;;;;;;28.05;56.76;98733.92;237330;1195;139414;-58
2022/08/18 10:03:01;;;;;;;11.60;9.20;;;;;;;28.16;56.50;98725.54;236970;1195;140513;-58
2022/08/18 10:08:04;;;;;;;13.30;9.60;;;;;;;28.26;55.93;98733.67;237070;1195;140387;-58
2022/08/18 10:13:33;;;;;;;15.10;9.80;;;;;;;28.43;55.69;98732.98;236994;1195;140757;-58
2022/08/18 10:19:12;;;;;;;13.50;9.00;;;;;;;28.67;55.62;98729.75;237015;1195;139359;-58
2022/08/18 10:24:18;;;;;;;14.30;8.80;;;;;;;28.96;55.32;98733.63;237143;1195;139526;-57
2022/08/18 10:29:50;;;;;;;13.00;8.70;;;;;;;29.20;55.04;98731.39;237035;1196;141170;-58
2022/08/18 10:34:56;;;;;;;14.50;8.70;;;;;;;29.41;54.67;98714.13;236987;1196;139767;-58
2022/08/18 10:40:12;;;;;;;16.00;8.00;;;;;;;29.61;54.17;98714.10;237340;1195;140485;-58
2022/08/18 10:45:30;;;;;;;16.30;8.70;;;;;;;29.79;53.87;98704.08;236962;1195;140044;-58
2022/08/18 10:50:45;;;;;;;11.00;8.10;;;;;;;29.96;53.53;98695.63;236888;1195;139293;-58
2022/08/18 10:56:02;;;;;;;13.70;8.10;;;;;;;30.16;53.33;98687.88;236922;1196;140371;-58
2022/08/18 11:01:42;;;;;;;13.70;8.00;;;;;;;30.28;52.62;98678.80;236993;1196;138991;-57
2022/08/18 11:06:49;;;;;;;9.70;7.70;;;;;;;30.47;52.63;98673.24;237182;1195;139999;-58
2022/08/18 11:11:57;;;;;;;10.40;7.50;;;;;;;30.65;52.07;98674.11;237148;1195;139626;-58
2022/08/18 11:17:21;;;;;;;10.60;6.70;;;;;;;30.80;51.37;98677.67;236718;1196;139842;-59
2022/08/18 11:22:30;;;;;;;9.30;6.00;;;;;;;30.97;51.23;98674.86;237399;1195;140208;-58
2022/08/18 11:27:45;;;;;;;7.90;6.60;;;;;;;31.15;50.70;98674.21;237563;1195;139332;-58
2022/08/18 11:32:49;;;;;;;10.70;6.90;;;;;;;31.38;50.25;98670.67;237024;1196;139367;-59
2022/08/18 11:37:58;;;;;;;8.90;7.10;;;;;;;31.60;50.16;98670.52;236894;1196;139685;-58
2022/08/18 11:43:13;;;;;;;12.10;6.80;;;;;;;31.78;49.65;98659.19;237147;1196;139709;-59
2022/08/18 11:48:33;;;;;;;12.30;6.10;;;;;;;31.89;49.21;98649.59;236874;1196;140139;-58
2022/08/18 11:53:48;;;;;;;7.70;6.30;;;;;;;31.93;48.56;98632.02;237033;1195;140472;-58
2022/08/18 11:59:03;;;;;;;11.40;6.80;;;;;;;32.01;48.52;98631.13;236951;1196;139674;-58
2022/08/18 12:04:12;;;;;;;8.50;6.50;;;;;;;32.12;48.34;98626.50;237012;1196;139603;-58
2022/08/18 12:09:21;;;;;;;9.10;6.20;;;;;;;32.27;48.42;98620.80;236859;1196;139799;-58
2022/08/18 12:14:56;;;;;;;7.60;6.00;;;;;;;32.48;48.02;98617.33;237029;1196;140128;-58
2022/08/18 12:20:15;;;;;;;6.60;6.00;;;;;;;32.73;47.65;98612.52;237279;1195;139523;-58
2022/08/18 12:25:19;;;;;;;12.80;6.40;;;;;;;32.73;46.77;98604.47;237242;1195;140219;-57
2022/08/18 12:30:42;;;;;;;10.80;6.10;;;;;;;32.71;46.46;98597.88;236839;1196;139603;-59
2022/08/18 12:35:45;;;;;;;9.00;5.40;;;;;;;32.80;46.37;98590.10;237085;1196;140618;-57
2022/08/18 12:40:50;;;;;;;10.10;5.80;;;;;;;32.97;46.09;98575.60;237007;1196;140376;-58
2022/08/18 12:45:53;;;;;;;7.60;5.40;;;;;;;33.16;45.85;98575.07;237140;1196;140305;-58
2022/08/18 12:50:57;;;;;;;10.20;5.50;;;;;;;33.37;45.35;98575.81;237166;1195;139090;-57
2022/08/18 12:56:07;;;;;;;11.10;5.60;;;;;;;33.36;44.81;98569.19;236832;1196;140792;-58
2022/08/18 13:01:12;;;;;;;16.90;14.70;;;;;;;33.24;44.36;98570.73;237026;1195;139783;-58
2022/08/18 13:06:19;;;;;;;13.00;5.90;;;;;;;33.20;44.33;98572.49;237053;1195;142121;-58
2022/08/18 13:11:23;;;;;;;10.80;6.20;;;;;;;33.09;44.02;98573.48;237178;1195;139394;-59
2022/08/18 13:16:32;;;;;;;9.00;5.40;;;;;;;33.09;43.64;98570.45;236887;1196;140644;-59
2022/08/18 13:21:55;;;;;;;10.10;6.00;;;;;;;33.06;43.39;98572.89;236945;1196;139770;-60
2022/08/18 13:26:59;;;;;;;9.00;5.40;;;;;;;32.87;42.84;98575.98;237073;1195;139823;-58
2022/08/18 13:32:07;;;;;;;7.50;5.60;;;;;;;32.86;43.16;98578.06;237230;1195;139837;-59
2022/08/18 13:37:10;;;;;;;10.30;5.70;;;;;;;32.99;43.46;98574.41;237309;1195;139910;-58
2022/08/18 13:42:14;;;;;;;6.90;5.10;;;;;;;33.16;43.07;98580.71;237047;1195;139360;-58
2022/08/18 13:47:31;;;;;;;7.30;5.20;;;;;;;33.32;42.91;98586.28;237057;1196;141898;-59
2022/08/18 13:52:40;;;;;;;7.90;5.50;;;;;;;33.43;42.40;98589.04;237036;1196;140138;-59
2022/08/18 13:57:49;;;;;;;10.00;6.30;;;;;;;33.43;42.22;98587.50;237514;1195;140824;-59
2022/08/18 14:02:57;;;;;;;9.30;5.10;;;;;;;33.54;42.16;98595.50;237300;1195;139425;-60
2022/08/18 14:08:01;;;;;;;8.80;5.70;;;;;;;33.62;41.89;98600.44;236938;1196;139761;-60
2022/08/18 14:13:05;;;;;;;6.80;5.50;;;;;;;33.69;41.77;98597.31;237162;1195;139232;-60
2022/08/18 14:18:27;;;;;;;15.90;10.00;;;;;;;33.76;41.39;98603.20;237277;1195;140230;-59
2022/08/18 14:28:54;;;;;;;11.00;5.90;;;;;;;33.69;41.21;98604.16;236881;1196;139084;-59
2022/08/18 14:33:57;;;;;;;10.00;5.60;;;;;;;33.57;40.79;98605.65;237346;1195;139945;-59
2022/08/18 14:39:06;;;;;;;8.90;5.40;;;;;;;33.41;40.75;98603.73;236641;1195;139523;-58
2022/08/18 14:44:12;;;;;;;12.50;5.80;;;;;;;33.12;40.90;98607.95;237064;1195;139913;-59
2022/08/18 14:49:20;;;;;;;11.90;6.10;;;;;;;32.79;40.70;98600.27;236997;1195;139663;-59
2022/08/18 14:54:32;;;;;;;9.30;6.30;;;;;;;32.38;40.91;98585.70;237238;1195;139255;-58
2022/08/18 14:59:35;;;;;;;;;;;;;;;32.06;41.32;98576.49;237191;1195;139724;-58
2022/08/18 15:04:40;;;;;;;13.70;5.50;;;;;;;31.79;41.70;98572.48;237039;1196;126027;-57
2022/08/18 15:09:59;;;;;;;8.40;5.90;;;;;;;31.57;42.06;98572.61;237207;1196;140293;-59
2022/08/18 15:15:19;;;;;;;8.70;6.00;;;;;;;31.37;42.28;98572.66;237027;1196;139193;-58
2022/08/18 15:20:26;;;;;;;9.80;6.30;;;;;;;31.18;42.49;98576.51;237075;1196;140059;-59
2022/08/18 15:25:40;;;;;;;60.10;47.00;;;;;;;31.04;42.63;98579.33;236895;1195;139291;-59
2022/08/18 15:30:47;;;;;;;16.00;9.30;;;;;;;30.91;43.12;98578.64;237048;1196;139925;-58
2022/08/18 15:35:53;;;;;;;11.90;7.00;;;;;;;30.77;43.11;98578.94;236839;1195;140292;-58
2022/08/18 15:40:58;;;;;;;18.30;16.30;;;;;;;30.66;43.42;98572.22;236893;1196;139645;-59
2022/08/18 15:46:08;;;;;;;9.00;8.00;;;;;;;30.54;43.55;98577.95;237237;1195;139847;-58
2022/08/18 15:51:18;;;;;;;6.90;6.20;;;;;;;30.44;43.63;98571.65;237229;1195;139375;-54
2022/08/18 15:56:23;;;;;;;8.90;5.80;;;;;;;30.33;43.81;98574.77;236999;1196;139183;-57
2022/08/18 16:01:28;;;;;;;8.90;5.90;;;;;;;30.25;44.02;98575.49;236956;1195;138703;-58
2022/08/18 16:06:40;;;;;;;12.30;5.90;;;;;;;30.17;43.92;98576.38;237000;1195;140757;-57
2022/08/18 16:11:43;;;;;;;128.60;108.10;;;;;;;30.11;44.13;98574.92;237211;1195;139629;-57
2022/08/18 16:16:46;;;;;;;9.70;8.40;;;;;;;30.06;44.07;98577.20;237053;1196;140030;-57
2022/08/18 16:21:51;;;;;;;7.10;6.00;;;;;;;30.03;44.21;98575.67;237100;1196;139423;-58
2022/08/18 16:26:54;;;;;;;8.70;7.20;;;;;;;29.98;44.02;98573.46;236840;1196;139245;-56
2022/08/18 16:31:58;;;;;;;9.10;5.20;;;;;;;29.91;44.15;98565.15;237119;1196;139388;-57
2022/08/18 16:37:03;;;;;;;18.70;16.30;;;;;;;29.82;44.10;98558.43;237268;1195;139797;-57
2022/08/18 16:42:06;;;;;;;13.40;6.60;;;;;;;29.74;44.15;98557.41;237184;1195;140009;-57
2022/08/18 16:47:11;;;;;;;87.90;78.30;;;;;;;29.68;44.11;98561.36;236940;1196;139435;-56
2022/08/18 16:52:15;;;;;;;11.90;7.60;;;;;;;29.61;44.12;98562.33;236820;1196;139962;-56
2022/08/18 17:04:05;;;;;;;6.60;5.40;;;;;;;29.56;44.50;98564.05;237076;1196;140600;-56
2022/08/18 17:08:26;;;;;;;17.10;5.40;;;;;;;29.43;44.92;98566.05;237173;1195;139763;-57
2022/08/18 17:13:30;;;;;;;50.90;43.20;;;;;;;29.36;45.04;98560.06;237213;1195;141107;-54
2022/08/18 17:18:34;;;;;;;15.10;11.30;;;;;;;29.29;45.10;98553.66;237066;1196;139614;-57
2022/08/18 17:23:39;;;;;;;9.30;5.50;;;;;;;29.23;45.23;98548.59;236879;1196;139909;-57
2022/08/18 17:28:44;;;;;;;;;;;;;;;29.20;45.80;98548.17;236708;1196;139650;-56
2022/08/18 17:33:57;;;;;;;6.60;5.80;;;;;;;29.13;45.70;98550.14;237141;1196;126114;-57
2022/08/18 17:39:04;;;;;;;73.20;64.80;;;;;;;29.01;45.76;98543.27;237229;1195;139844;-56
2022/08/18 17:44:08;;;;;;;19.70;17.60;;;;;;;28.91;45.92;98544.52;237358;1195;140329;-56
2022/08/18 17:49:19;;;;;;;140.50;114.50;;;;;;;28.85;46.27;98550.40;236883;1196;140303;-55
2022/08/18 17:54:44;;;;;;;14.80;12.10;;;;;;;28.78;46.44;98561.30;237317;1196;140760;-55
2022/08/18 18:00:11;;;;;;;7.20;5.50;;;;;;;28.71;46.50;98567.33;237294;1195;140410;-56
2022/08/18 18:05:17;;;;;;;230.10;198.10;;;;;;;28.64;46.51;98564.91;237229;1195;140490;-57
2022/08/18 18:10:33;;;;;;;19.40;16.60;;;;;;;28.55;46.73;98576.70;237406;1196;139909;-57
2022/08/18 18:15:48;;;;;;;21.70;19.30;;;;;;;28.42;46.76;98582.13;237463;1195;139770;-57
2022/08/18 18:21:20;;;;;;;15.70;11.80;;;;;;;28.33;46.96;98585.37;237399;1195;139863;-55
2022/08/18 18:26:30;;;;;;;13.00;10.50;;;;;;;28.24;47.15;98594.23;237037;1195;140743;-55
2022/08/18 18:31:33;;;;;;;31.30;27.90;;;;;;;28.15;47.33;98602.33;237280;1196;139557;-55
2022/08/18 18:36:42;;;;;;;21.50;16.90;;;;;;;28.10;47.46;98611.06;237268;1196;140379;-57
2022/08/18 18:41:51;;;;;;;15.20;10.40;;;;;;;28.02;47.68;98612.83;237409;1195;140000;-56
2022/08/18 18:47:34;;;;;;;8.90;6.20;;;;;;;27.90;47.81;98613.64;237332;1195;140433;-56
2022/08/18 18:52:47;;;;;;;11.40;6.90;;;;;;;27.77;48.11;98615.23;237335;1195;140969;-56
2022/08/18 18:58:06;;;;;;;10.20;6.80;;;;;;;27.67;48.37;98607.98;237294;1195;139281;-56
2022/08/18 19:03:53;;;;;;;10.60;7.30;;;;;;;27.57;48.64;98605.20;237350;1195;139839;-56
2022/08/18 19:09:01;;;;;;;9.90;7.30;;;;;;;27.46;48.90;98604.68;236780;1196;139403;-56
2022/08/18 19:14:16;;;;;;;8.90;7.10;;;;;;;27.40;49.12;98605.61;237282;1196;139845;-57
2022/08/18 19:19:30;;;;;;;8.40;7.40;;;;;;;27.30;49.29;98603.95;236523;1195;139774;-55
2022/08/18 19:24:49;;;;;;;13.60;8.90;;;;;;;27.22;49.52;98597.16;237366;1195;140258;-56
2022/08/18 19:29:57;;;;;;;16.70;8.40;;;;;;;27.11;49.93;98583.46;237327;1195;140541;-56
2022/08/18 19:35:01;;;;;;;92.50;81.90;;;;;;;27.02;50.02;98579.81;237220;1196;139432;-55
2022/08/18 19:40:22;;;;;;;115.90;102.80;;;;;;;26.93;50.36;98574.95;237395;1195;140109;-55
2022/08/18 19:45:58;;;;;;;26.40;17.60;;;;;;;26.85;50.67;98557.98;237353;1195;140480;-55
2022/08/18 19:51:03;;;;;;;;;;;;;;;26.77;50.91;98544.13;237024;1195;139803;-56
2022/08/18 19:57:33;;;;;;;119.90;101.90;;;;;;;26.75;51.07;98539.21;233705;1206;635603;-54
2022/08/18 20:03:02;;;;;;;17.30;12.80;;;;;;;26.69;51.35;98537.08;236442;1196;139417;-57
2022/08/18 20:08:14;;;;;;;11.30;7.30;;;;;;;26.59;51.36;98540.86;237056;1196;138935;-57
2022/08/18 20:13:35;;;;;;;9.90;7.20;;;;;;;26.47;51.47;98533.88;237170;1196;138829;-56
2022/08/18 20:18:42;;;;;;;12.40;7.80;;;;;;;26.37;51.74;98530.37;237421;1196;137990;-57
2022/08/18 20:23:54;;;;;;;9.20;7.30;;;;;;;26.30;51.94;98515.41;237419;1196;139350;-56
2022/08/18 20:28:58;;;;;;;10.90;7.80;;;;;;;26.24;52.17;98523.95;237131;1196;138747;-58
2022/08/18 20:34:09;;;;;;;11.60;8.40;;;;;;;26.21;52.20;98521.91;236551;1196;138800;-56
2022/08/18 20:39:37;;;;;;;12.30;8.00;;;;;;;26.19;52.40;98518.60;237430;1196;138278;-57
2022/08/18 20:44:56;;;;;;;9.90;7.90;;;;;;;26.17;52.81;98517.55;237376;1196;140359;-59
2022/08/18 20:50:18;;;;;;;9.90;8.10;;;;;;;26.16;52.66;98519.35;236657;1198;138695;-60
2022/08/18 20:55:26;;;;;;;11.80;8.60;;;;;;;26.13;52.72;98522.70;237059;1196;138414;-58
2022/08/18 21:00:34;;;;;;;14.10;8.60;;;;;;;26.10;52.96;98522.88;237099;1196;139009;-56
2022/08/18 21:05:42;;;;;;;12.20;8.60;;;;;;;26.08;53.03;98529.95;236753;1196;138996;-56
2022/08/18 21:10:46;;;;;;;14.70;9.60;;;;;;;26.04;53.22;98532.27;236562;1197;138499;-58
2022/08/18 21:15:50;;;;;;;13.50;9.80;;;;;;;26.04;53.40;98544.55;236840;1196;138619;-58
2022/08/18 21:20:57;;;;;;;13.30;9.10;;;;;;;26.04;53.43;98542.33;236966;1196;138411;-57
2022/08/18 21:26:07;;;;;;;11.90;9.50;;;;;;;26.04;53.59;98536.98;238362;1193;139599;-55
2022/08/18 21:31:33;;;;;;;11.40;9.40;;;;;;;26.04;53.69;98529.81;238373;1193;140116;-56
2022/08/18 21:36:52;;;;;;;13.60;10.00;;;;;;;26.00;53.69;98517.77;238441;1193;139601;-58
2022/08/18 21:41:57;;;;;;;12.80;9.80;;;;;;;25.93;53.92;98518.09;238135;1193;138916;-58
2022/08/18 21:47:08;;;;;;;13.80;9.00;;;;;;;25.87;53.95;98515.11;237169;1193;138204;-58
2022/08/18 21:52:22;;;;;;;16.80;9.80;;;;;;;25.88;53.90;98509.66;238579;1193;138626;-57
2022/08/18 21:57:28;;;;;;;13.10;9.80;;;;;;;25.87;54.05;98511.41;238043;1193;139425;-58
2022/08/18 22:02:31;;;;;;;14.80;10.40;;;;;;;25.87;53.98;98512.93;237596;1193;138983;-59
2022/08/18 22:07:34;;;;;;;18.90;10.10;;;;;;;25.84;54.13;98514.09;237680;1193;139762;-59
2022/08/18 22:18:15;;;;;;;13.00;9.80;;;;;;;25.80;54.52;98519.48;238421;1192;139409;-58
2022/08/18 22:29:08;;;;;;;14.30;10.50;;;;;;;25.62;54.38;98521.25;238386;1193;139199;-58
2022/08/18 22:34:17;;;;;;;13.90;10.20;;;;;;;25.56;54.65;98519.52;238638;1193;138694;-58
2022/08/18 22:39:34;;;;;;;12.60;10.30;;;;;;;25.54;54.94;98525.70;238590;1193;138645;-58
2022/08/18 22:44:38;;;;;;;14.70;10.80;;;;;;;25.50;54.88;98533.07;238517;1193;139769;-56
2022/08/18 22:49:44;;;;;;;14.40;10.00;;;;;;;25.45;54.93;98536.75;238470;1193;138713;-58
2022/08/18 22:54:47;;;;;;;13.10;9.90;;;;;;;25.41;55.00;98537.52;238054;1193;138808;-58
2022/08/18 22:59:53;;;;;;;12.20;10.40;;;;;;;25.37;55.22;98534.77;238205;1193;139548;-57
2022/08/18 23:05:00;;;;;;;16.80;10.30;;;;;;;25.34;55.39;98523.81;238342;1193;138970;-58
2022/08/18 23:10:07;;;;;;;12.80;10.50;;;;;;;25.34;55.47;98520.27;238444;1193;140165;-56
2022/08/18 23:15:17;;;;;;;13.30;10.20;;;;;;;25.34;55.66;98517.63;238117;1193;139846;-57
2022/08/18 23:20:20;;;;;;;12.30;10.30;;;;;;;25.31;55.58;98508.93;238087;1193;142978;-57
2022/08/18 23:25:29;;;;;;;13.00;10.50;;;;;;;25.30;55.70;98508.93;238523;1193;139302;-57
2022/08/18 23:30:33;;;;;;;18.90;10.00;;;;;;;25.28;55.79;98515.00;238289;1193;139143;-57
2022/08/18 23:35:37;;;;;;;12.10;10.40;;;;;;;25.24;55.75;98519.46;238128;1193;139996;-58
2022/08/18 23:40:46;;;;;;;14.10;9.90;;;;;;;25.20;55.83;98514.50;238175;1193;139124;-57
2022/08/18 23:45:49;;;;;;;14.80;10.30;;;;;;;25.17;56.04;98516.52;238631;1193;139778;-57
2022/08/18 23:50:52;;;;;;;15.20;10.20;;;;;;;25.14;55.96;98518.41;238383;1193;139495;-56
2022/08/18 23:55:55;;;;;;;11.70;10.20;;;;;;;25.08;56.11;98512.63;238509;1193;139182;-57
